Chickerell, United Kingdom
Current Conditions -  °F | °C
As of 9:50 PM on Friday 19 Dec 2014 (Local Time) from EGDY Reporting Station
Clear Clear  
Wind Chill:   Ceiling: Unl
Heat Index:   Visibility: 6mi
Dew Point:   Wind: 9mph
Humidity: 81%   Direction: 240°WSW
Pressure: 30.27"   Gusts: NA
Location:  50.62°N, 2.5°W
Report Text: EGDY 192150Z AUTO 24008KT 9999 NCD 06/03 Q1025
Loading
Personal Weather Stations






























Interactive Weather Map New forecast layout! Learn more

10-Day Weather Forecast

Advertisements
Track Severe Weather on mobile